Weather at Nice-Côte d'Azur Airport

Public forecast

Using degrees Celsius for public forecast. Weather courtesy of forecast.io.

Current aviation weather report (METAR) for Nice-Côte d'Azur Airport

Retrieved 2021/01/21 14:30 UTC (0 seconds ago):

LFMN 211430Z 01003KT 9999 FEW013 BKN026 11/09 Q1012 NOSIG

Aviation forecast (TAF) for Nice-Côte d'Azur Airport

Retrieved 2021/01/21 15:00 UTC (0 seconds ago):

TAF LFMN 211400Z 2115/2221 VRB05KT 9999 SCT015 BKN030 TEMPO 2118/2204 4000 SHRA BKN010 BKN030TCU BECMG 2209/2211 20015KT BKN010 BKN040TCU TEMPO 2211/2217 VRB20G30KT 2000 TSRA SCT030CB BECMG 2217/2218 24020G30KT NSC